Time;durP1;ratioP1;P1;durP2;ratioP2;P2;SDS_P1;SDS_P2;PMS_P1;PMS_P2;Temp;Humidity;BMP_temperature;BMP_pressure;BME280_temperature;BME280_humidity;BME280_pressure;Samples;Min_cycle;Max_cycle;Signal;HPM_P1;HPM_P2
2023/12/15 00:01:26;;;;;;;28.83;14.23;;;4.60;99.90;;;;;;5093956;28;20390;-67
2023/12/15 00:03:52;;;;;;;39.08;14.40;;;4.50;99.90;;;;;;5092019;28;20496;-67
2023/12/15 00:06:17;;;;;;;35.60;14.55;;;4.60;99.90;;;;;;5092359;28;20043;-67
2023/12/15 00:08:43;;;;;;;33.45;14.98;;;4.60;99.90;;;;;;5056795;28;20024;-67
2023/12/15 00:11:09;;;;;;;39.20;15.50;;;4.60;99.90;;;;;;5072419;28;20113;-67
2023/12/15 00:13:34;;;;;;;41.83;18.17;;;4.60;99.90;;;;;;5090115;28;20042;-67
2023/12/15 00:16:00;;;;;;;44.08;17.50;;;4.60;99.90;;;;;;5090717;28;20062;-67
2023/12/15 00:18:26;;;;;;;45.90;16.98;;;4.60;99.90;;;;;;5069092;28;20038;-67
2023/12/15 00:20:51;;;;;;;38.05;17.67;;;4.60;99.90;;;;;;5072680;28;20079;-67
2023/12/15 00:23:17;;;;;;;49.75;17.58;;;4.60;99.90;;;;;;5090937;28;20191;-67
2023/12/15 00:25:43;;;;;;;31.98;15.68;;;4.60;99.90;;;;;;5074393;28;20485;-67
2023/12/15 00:28:09;;;;;;;36.35;17.13;;;4.60;99.90;;;;;;5087891;28;20043;-67
2023/12/15 00:30:34;;;;;;;37.05;16.00;;;4.60;99.90;;;;;;5096117;28;20677;-67
2023/12/15 00:33:00;;;;;;;42.22;16.40;;;4.60;99.90;;;;;;5082529;28;20028;-67
2023/12/15 00:35:26;;;;;;;43.60;16.88;;;4.70;99.90;;;;;;5078377;28;20117;-67
2023/12/15 00:37:51;;;;;;;39.50;15.45;;;4.70;99.90;;;;;;5083721;28;20036;-67
2023/12/15 00:40:17;;;;;;;45.53;18.65;;;4.60;99.90;;;;;;5080615;28;20494;-67
2023/12/15 00:42:43;;;;;;;52.83;18.88;;;4.70;99.90;;;;;;5093539;28;20067;-67
2023/12/15 00:45:09;;;;;;;48.45;16.63;;;4.70;99.90;;;;;;5070417;28;20101;-67
2023/12/15 00:47:35;;;;;;;46.33;17.75;;;4.70;99.90;;;;;;5077269;28;20509;-67
2023/12/15 00:50:01;;;;;;;48.58;19.13;;;4.70;99.90;;;;;;5073740;28;20071;-67
2023/12/15 00:52:26;;;;;;;43.17;18.63;;;4.70;99.90;;;;;;5089525;28;20044;-67
2023/12/15 00:54:52;;;;;;;52.75;17.80;;;4.80;99.90;;;;;;5089982;28;20069;-67
2023/12/15 00:57:19;;;;;;;44.20;18.58;;;4.80;99.90;;;;;;5089131;28;20090;-66
2023/12/15 00:59:44;;;;;;;45.88;17.17;;;4.80;99.90;;;;;;5074745;28;20067;-66
2023/12/15 01:02:10;;;;;;;51.03;18.00;;;4.80;99.90;;;;;;5073221;28;20094;-66
2023/12/15 01:04:36;;;;;;;37.55;16.60;;;4.80;99.90;;;;;;5093922;28;20546;-67
2023/12/15 01:07:01;;;;;;;43.38;18.58;;;4.90;99.90;;;;;;5074706;28;20047;-67
2023/12/15 01:09:27;;;;;;;42.03;17.65;;;4.90;99.90;;;;;;5068428;28;20039;-67
2023/12/15 01:11:53;;;;;;;42.33;18.40;;;4.90;99.90;;;;;;5071521;28;20301;-67
2023/12/15 01:14:19;;;;;;;50.85;19.33;;;4.90;99.90;;;;;;5086484;28;20032;-67
2023/12/15 01:16:49;;;;;;;42.97;17.60;;;4.90;99.90;;;;;;5089251;28;20032;-67
2023/12/15 01:19:17;;;;;;;53.55;18.83;;;4.90;99.90;;;;;;5068219;28;20316;-67
2023/12/15 01:21:43;;;;;;;49.67;19.70;;;5.00;99.90;;;;;;5068012;28;20044;-67
2023/12/15 01:24:10;;;;;;;48.17;20.40;;;5.00;99.90;;;;;;5088887;28;20040;-67
2023/12/15 01:26:35;;;;;;;52.75;18.40;;;5.00;99.90;;;;;;5088712;28;20115;-67
2023/12/15 01:29:01;;;;;;;45.97;17.50;;;5.00;99.90;;;;;;5072604;28;20130;-67
2023/12/15 01:31:27;;;;;;;51.35;18.88;;;5.00;99.90;;;;;;5053147;28;20524;-67
2023/12/15 01:33:53;;;;;;;59.60;21.52;;;5.00;99.90;;;;;;5091456;28;20135;-67
2023/12/15 01:36:19;;;;;;;62.83;21.60;;;5.00;99.90;;;;;;5072783;28;20135;-67
2023/12/15 01:38:45;;;;;;;53.55;20.50;;;5.00;99.90;;;;;;5090754;28;20506;-67
2023/12/15 01:41:11;;;;;;;63.55;21.27;;;5.00;99.90;;;;;;5072688;28;20040;-67
2023/12/15 01:43:37;;;;;;;55.58;21.00;;;5.10;99.90;;;;;;5074318;28;20040;-67
2023/12/15 01:46:03;;;;;;;52.03;20.08;;;5.10;99.90;;;;;;5089212;28;20058;-67
2023/12/15 01:48:30;;;;;;;60.75;22.33;;;5.10;99.90;;;;;;5089107;28;20502;-67
2023/12/15 01:50:56;;;;;;;59.65;20.80;;;5.10;99.90;;;;;;5076552;28;20083;-67
2023/12/15 01:53:21;;;;;;;62.60;21.05;;;5.10;99.90;;;;;;5111692;28;20086;-67
2023/12/15 01:55:48;;;;;;;57.60;22.35;;;5.10;99.90;;;;;;5086360;28;20040;-67
2023/12/15 01:58:14;;;;;;;56.42;21.65;;;5.20;99.90;;;;;;5087759;28;20043;-67
2023/12/15 02:00:39;;;;;;;57.92;22.85;;;5.20;99.90;;;;;;5073499;28;20028;-67
2023/12/15 02:03:06;;;;;;;58.33;23.05;;;5.20;99.90;;;;;;5089032;28;20381;-67
2023/12/15 02:05:31;;;;;;;56.80;22.10;;;5.20;99.90;;;;;;5070565;28;20557;-67
2023/12/15 02:07:58;;;;;;;108.22;23.63;;;5.20;99.90;;;;;;5089769;28;20036;-67
2023/12/15 02:10:23;;;;;;;130.77;61.10;;;5.20;99.90;;;;;;5086987;28;20044;-67
2023/12/15 02:12:49;;;;;;;70.07;24.33;;;5.20;99.90;;;;;;5086128;28;20036;-67
2023/12/15 02:15:15;;;;;;;63.47;21.88;;;5.20;99.90;;;;;;5090356;28;20435;-67
2023/12/15 02:17:41;;;;;;;59.90;21.80;;;5.20;99.90;;;;;;5090538;28;20085;-67
2023/12/15 02:20:07;;;;;;;70.78;25.25;;;5.20;99.90;;;;;;5091161;28;20067;-67
2023/12/15 02:22:33;;;;;;;62.45;22.25;;;5.30;99.90;;;;;;5091685;28;20481;-67
2023/12/15 02:24:59;;;;;;;65.03;25.67;;;5.30;99.90;;;;;;5088198;28;20055;-67
2023/12/15 02:27:24;;;;;;;70.22;26.95;;;5.30;99.90;;;;;;5088366;28;20476;-67
2023/12/15 02:29:50;;;;;;;54.45;21.42;;;5.30;99.90;;;;;;5087353;28;20036;-67
2023/12/15 02:32:16;;;;;;;73.88;26.05;;;5.30;99.90;;;;;;5071608;28;20032;-67
2023/12/15 02:34:42;;;;;;;70.43;25.08;;;5.30;99.90;;;;;;5088937;28;20060;-67
2023/12/15 02:37:07;;;;;;;72.10;24.20;;;5.30;99.90;;;;;;5085212;28;20154;-67
2023/12/15 02:39:33;;;;;;;64.07;23.77;;;5.30;99.90;;;;;;5082874;28;20086;-67
2023/12/15 02:41:59;;;;;;;71.15;24.50;;;5.30;99.90;;;;;;5089860;28;20043;-67
2023/12/15 02:44:24;;;;;;;64.53;23.90;;;5.40;99.90;;;;;;5084278;28;20439;-67
2023/12/15 02:46:50;;;;;;;60.97;25.35;;;5.30;99.90;;;;;;5086766;28;20167;-67
2023/12/15 02:49:18;;;;;;;83.57;26.85;;;5.40;99.90;;;;;;5072798;28;20044;-67
2023/12/15 02:51:44;;;;;;;67.22;25.00;;;5.30;99.90;;;;;;5088297;28;20447;-67
2023/12/15 02:54:09;;;;;;;64.40;25.27;;;5.40;99.90;;;;;;5075629;28;20043;-67
2023/12/15 02:56:35;;;;;;;72.72;24.25;;;5.40;99.90;;;;;;5087204;28;20032;-67
2023/12/15 02:59:01;;;;;;;72.20;26.52;;;5.40;99.90;;;;;;5057964;28;20709;-67
2023/12/15 03:01:26;;;;;;;66.00;23.25;;;5.40;99.90;;;;;;5087092;28;20040;-67
2023/12/15 03:03:52;;;;;;;63.00;24.92;;;5.40;99.90;;;;;;5071325;28;20083;-67
2023/12/15 03:06:18;;;;;;;68.55;26.50;;;5.40;99.90;;;;;;5068391;28;20067;-67
2023/12/15 03:08:44;;;;;;;63.83;24.92;;;5.50;99.90;;;;;;5086308;28;20046;-67
2023/12/15 03:11:09;;;;;;;66.63;25.40;;;5.50;99.90;;;;;;5087341;28;20052;-67
2023/12/15 03:13:38;;;;;;;77.93;27.25;;;5.50;99.90;;;;;;5088777;28;20040;-67
2023/12/15 03:16:08;;;;;;;64.13;25.65;;;5.50;99.90;;;;;;5091229;28;20489;-67
2023/12/15 03:18:34;;;;;;;78.32;27.33;;;5.50;99.90;;;;;;5071430;28;20044;-67
2023/12/15 03:21:00;;;;;;;71.43;26.25;;;5.50;99.90;;;;;;5073307;28;20077;-67
2023/12/15 03:23:26;;;;;;;77.68;27.27;;;5.50;99.90;;;;;;5083668;28;20067;-67
2023/12/15 03:25:52;;;;;;;80.38;27.58;;;5.60;99.90;;;;;;5086242;28;20086;-67
2023/12/15 03:28:17;;;;;;;85.85;25.70;;;5.60;99.90;;;;;;5086011;28;20028;-67
2023/12/15 03:30:43;;;;;;;73.10;27.38;;;5.60;99.90;;;;;;5088791;28;20123;-67
2023/12/15 03:33:09;;;;;;;74.03;25.48;;;5.60;99.90;;;;;;5057590;28;20082;-67
2023/12/15 03:35:35;;;;;;;65.85;25.75;;;5.70;99.90;;;;;;5052764;28;20048;-67
2023/12/15 03:38:03;;;;;;;70.03;25.00;;;5.70;99.90;;;;;;5072879;28;20078;-67
2023/12/15 03:40:29;;;;;;;75.80;26.60;;;5.70;99.90;;;;;;5087906;28;20060;-67
2023/12/15 03:42:54;;;;;;;68.07;25.65;;;5.70;99.90;;;;;;5073080;28;20078;-67
2023/12/15 03:45:20;;;;;;;68.35;25.70;;;5.70;99.90;;;;;;5087665;28;20044;-67
2023/12/15 03:47:46;;;;;;;72.32;25.67;;;5.70;99.90;;;;;;5087292;28;20036;-67
2023/12/15 03:50:11;;;;;;;64.20;25.08;;;5.80;99.90;;;;;;5070512;28;20032;-67
2023/12/15 03:52:37;;;;;;;78.45;27.75;;;5.80;99.90;;;;;;5070588;28;20642;-67
2023/12/15 03:55:03;;;;;;;70.55;28.13;;;5.80;99.90;;;;;;5067180;28;20074;-67
2023/12/15 03:57:29;;;;;;;74.45;27.35;;;5.80;99.90;;;;;;5086555;28;20036;-67
2023/12/15 03:59:54;;;;;;;53.80;22.63;;;5.80;99.90;;;;;;5069609;28;20382;-67
2023/12/15 04:02:20;;;;;;;72.90;25.98;;;5.90;99.90;;;;;;5089715;28;20052;-67
2023/12/15 04:04:46;;;;;;;71.65;24.95;;;5.90;99.90;;;;;;5088924;28;20101;-67
2023/12/15 04:07:12;;;;;;;74.07;28.33;;;5.90;99.90;;;;;;5085316;28;20032;-67
2023/12/15 04:09:38;;;;;;;80.70;28.55;;;5.90;99.90;;;;;;5089373;28;20036;-67
2023/12/15 04:12:04;;;;;;;84.50;28.23;;;5.90;99.90;;;;;;5075284;28;20043;-67
2023/12/15 04:14:32;;;;;;;73.30;27.20;;;6.00;99.90;;;;;;5090474;28;20048;-67
2023/12/15 04:16:57;;;;;;;78.63;25.55;;;6.00;99.90;;;;;;5086511;28;20077;-67
2023/12/15 04:19:23;;;;;;;87.85;28.13;;;6.00;99.90;;;;;;5088122;28;20064;-67
2023/12/15 04:21:49;;;;;;;80.55;26.58;;;6.00;99.90;;;;;;5074387;28;20028;-67
2023/12/15 04:24:14;;;;;;;69.03;24.35;;;6.00;99.90;;;;;;5078256;28;20447;-67
2023/12/15 04:26:40;;;;;;;91.53;28.25;;;6.00;99.90;;;;;;5097428;28;20036;-67
2023/12/15 04:29:06;;;;;;;79.75;26.92;;;6.00;99.90;;;;;;5093918;28;20114;-67
2023/12/15 04:31:31;;;;;;;76.20;25.30;;;6.10;99.90;;;;;;5094928;28;20412;-67
2023/12/15 04:33:57;;;;;;;74.22;27.63;;;6.00;99.90;;;;;;5090470;28;20534;-67
2023/12/15 04:36:23;;;;;;;88.15;26.33;;;6.00;99.90;;;;;;5085321;28;20164;-67
2023/12/15 04:38:49;;;;;;;83.88;27.17;;;6.10;99.90;;;;;;5088155;28;20048;-67
2023/12/15 04:41:24;;;;;;;72.75;26.55;;;6.10;99.90;;;;;;5091674;28;20039;-67
2023/12/15 04:43:50;;;;;;;92.53;26.30;;;6.00;99.90;;;;;;5072428;28;20048;-67
2023/12/15 04:46:23;;;;;;;73.13;26.80;;;6.00;99.90;;;;;;5087272;28;20036;-67
2023/12/15 04:48:49;;;;;;;83.93;24.58;;;6.00;99.90;;;;;;5088366;28;20396;-67
2023/12/15 04:51:14;;;;;;;85.18;24.73;;;6.10;99.90;;;;;;5092763;28;20119;-67
2023/12/15 04:53:40;;;;;;;97.13;27.48;;;6.10;99.90;;;;;;5072702;28;20073;-67
2023/12/15 04:56:06;;;;;;;68.13;23.88;;;6.00;99.90;;;;;;5072109;28;20059;-67
2023/12/15 04:58:32;;;;;;;81.00;23.90;;;6.10;99.90;;;;;;5070146;28;20118;-67
2023/12/15 05:00:57;;;;;;;68.75;23.70;;;6.20;99.90;;;;;;5090576;28;20485;-67
2023/12/15 05:03:23;;;;;;;82.85;25.25;;;6.10;99.90;;;;;;5059454;28;20096;-67
2023/12/15 05:05:49;;;;;;;72.82;22.60;;;6.20;99.90;;;;;;5072992;28;20045;-67
2023/12/15 05:08:14;;;;;;;73.80;23.20;;;6.20;99.90;;;;;;5070246;28;20382;-67
2023/12/15 05:10:40;;;;;;;64.00;22.80;;;6.20;99.90;;;;;;5085296;28;20127;-67
2023/12/15 05:13:06;;;;;;;78.25;22.30;;;6.20;99.90;;;;;;5091293;28;20047;-67
2023/12/15 05:15:32;;;;;;;76.10;23.60;;;6.20;99.90;;;;;;5086250;28;20039;-67
2023/12/15 05:17:58;;;;;;;83.53;21.63;;;6.20;99.90;;;;;;5092231;28;20036;-67
2023/12/15 05:20:24;;;;;;;79.13;24.10;;;6.20;99.90;;;;;;5074175;28;20036;-67
2023/12/15 05:22:49;;;;;;;81.72;22.55;;;6.20;99.90;;;;;;5054080;28;20043;-67
2023/12/15 05:25:15;;;;;;;75.72;23.70;;;6.20;99.90;;;;;;5088726;28;20063;-67
2023/12/15 05:27:41;;;;;;;91.25;24.58;;;6.20;99.90;;;;;;5090668;28;20488;-68
2023/12/15 05:30:07;;;;;;;87.90;25.65;;;6.20;99.90;;;;;;5088188;28;20039;-67
2023/12/15 05:32:33;;;;;;;95.22;26.30;;;6.20;99.90;;;;;;5085844;28;20508;-67
2023/12/15 05:34:58;;;;;;;81.57;25.95;;;6.20;99.90;;;;;;5085711;28;20044;-67
2023/12/15 05:37:24;;;;;;;91.28;25.45;;;6.20;99.90;;;;;;5090242;28;20111;-67
2023/12/15 05:39:50;;;;;;;86.35;24.17;;;6.20;99.90;;;;;;5071492;28;20390;-67
2023/12/15 05:42:16;;;;;;;96.82;26.58;;;6.20;99.90;;;;;;5086077;28;20032;-67
2023/12/15 05:44:41;;;;;;;85.25;23.77;;;6.20;99.90;;;;;;5084688;28;20382;-67
2023/12/15 05:47:07;;;;;;;87.35;23.63;;;6.20;99.90;;;;;;5084519;28;20040;-67
2023/12/15 05:49:40;;;;;;;78.60;24.70;;;6.20;99.90;;;;;;5050596;28;20067;-67
2023/12/15 05:52:08;;;;;;;102.72;26.80;;;6.20;99.90;;;;;;5069697;28;20131;-67
2023/12/15 05:54:34;;;;;;;89.65;24.98;;;6.20;99.90;;;;;;5083617;28;20102;-67
2023/12/15 05:57:00;;;;;;;60.00;22.20;;;6.20;99.90;;;;;;5084150;28;20043;-67
2023/12/15 05:59:26;;;;;;;63.70;21.80;;;6.20;99.90;;;;;;5085339;28;20534;-67
2023/12/15 06:01:52;;;;;;;84.40;23.13;;;6.20;99.90;;;;;;5052694;28;20093;-67
2023/12/15 06:04:17;;;;;;;97.28;25.17;;;6.20;99.90;;;;;;5051016;28;20093;-67
2023/12/15 06:06:43;;;;;;;109.50;26.42;;;6.10;99.90;;;;;;5080567;28;20731;-67
2023/12/15 06:09:09;;;;;;;91.80;24.60;;;6.20;99.90;;;;;;5065412;28;20113;-67
2023/12/15 06:11:41;;;;;;;81.07;25.20;;;6.20;99.90;;;;;;5083194;28;20430;-67
2023/12/15 06:14:10;;;;;;;192.00;60.83;;;6.20;99.90;;;;;;5084329;28;20051;-67
2023/12/15 06:16:36;;;;;;;94.97;27.65;;;6.20;99.90;;;;;;5082714;28;20032;-67
2023/12/15 06:19:02;;;;;;;89.82;24.55;;;6.20;99.90;;;;;;5087473;28;20040;-67
2023/12/15 06:21:29;;;;;;;75.75;21.05;;;6.20;99.90;;;;;;5085037;28;20423;-67
2023/12/15 06:23:55;;;;;;;101.93;25.88;;;6.20;99.90;;;;;;5065213;28;20132;-67
2023/12/15 06:26:23;;;;;;;81.55;22.27;;;6.20;99.90;;;;;;5084575;28;20044;-67
2023/12/15 06:28:49;;;;;;;77.13;21.48;;;6.20;99.90;;;;;;5084947;28;20070;-67
2023/12/15 06:31:16;;;;;;;84.88;22.38;;;6.20;99.90;;;;;;5067446;28;20896;-67
2023/12/15 06:33:42;;;;;;;83.82;24.67;;;6.20;99.90;;;;;;5088570;28;20047;-67
2023/12/15 06:36:09;;;;;;;74.15;24.38;;;6.20;99.90;;;;;;5082148;28;20051;-67
2023/12/15 06:38:44;;;;;;;90.18;23.42;;;6.10;99.90;;;;;;5097675;28;20048;-67
2023/12/15 06:41:10;;;;;;;75.28;22.02;;;6.10;99.90;;;;;;5092126;28;20044;-67
2023/12/15 06:43:44;;;;;;;78.07;23.13;;;6.20;99.90;;;;;;5079699;28;20510;-67
2023/12/15 06:46:10;;;;;;;76.75;21.95;;;6.20;99.90;;;;;;5103272;28;20044;-67
2023/12/15 06:48:36;;;;;;;96.30;25.27;;;6.20;99.90;;;;;;5092229;28;20040;-67
2023/12/15 06:51:03;;;;;;;93.00;24.25;;;6.20;99.90;;;;;;5083800;28;20109;-67
2023/12/15 06:53:28;;;;;;;94.72;23.52;;;6.20;99.90;;;;;;5068668;28;20485;-67
2023/12/15 06:55:54;;;;;;;89.78;23.27;;;6.20;99.90;;;;;;5087126;28;20114;-67
2023/12/15 06:58:20;;;;;;;87.85;23.08;;;6.10;99.90;;;;;;5091264;28;20028;-67
2023/12/15 07:00:46;;;;;;;102.40;25.48;;;6.20;99.90;;;;;;5072920;28;20496;-67
2023/12/15 07:03:11;;;;;;;92.22;23.73;;;6.20;99.90;;;;;;5074578;28;20044;-67
2023/12/15 07:05:37;;;;;;;85.05;22.88;;;6.20;99.90;;;;;;5069938;28;20582;-67
2023/12/15 07:08:03;;;;;;;78.22;22.35;;;6.20;99.90;;;;;;5070852;28;20055;-67
2023/12/15 07:10:29;;;;;;;82.63;22.83;;;6.20;99.90;;;;;;5073222;28;20040;-67
2023/12/15 07:12:55;;;;;;;100.22;26.00;;;6.20;99.90;;;;;;5069098;28;20041;-67
2023/12/15 07:15:21;;;;;;;86.28;22.23;;;6.10;99.90;;;;;;5072113;28;20154;-67
2023/12/15 07:17:48;;;;;;;79.55;21.90;;;6.20;99.90;;;;;;5086574;28;20036;-67
2023/12/15 07:20:13;;;;;;;99.65;23.20;;;6.10;99.90;;;;;;5057351;28;20032;-67
2023/12/15 07:22:39;;;;;;;99.38;22.67;;;6.10;99.90;;;;;;5087443;28;20052;-67
2023/12/15 07:25:05;;;;;;;80.18;22.65;;;6.10;99.90;;;;;;5098315;28;20149;-67
2023/12/15 07:27:31;;;;;;;85.28;22.50;;;6.20;99.90;;;;;;5076821;28;20032;-67
2023/12/15 07:29:56;;;;;;;84.40;23.10;;;6.20;99.90;;;;;;5086705;28;20043;-67
2023/12/15 07:32:22;;;;;;;95.68;23.92;;;6.20;99.90;;;;;;5077587;28;20091;-67
2023/12/15 07:34:48;;;;;;;91.60;24.65;;;6.20;99.90;;;;;;5077575;28;20123;-67
2023/12/15 07:37:14;;;;;;;92.85;23.15;;;6.10;99.90;;;;;;5098868;28;20381;-67
2023/12/15 07:39:39;;;;;;;87.22;22.35;;;6.20;99.90;;;;;;5102852;28;20032;-67
2023/12/15 07:42:05;;;;;;;102.07;24.55;;;6.20;99.90;;;;;;5090740;28;20034;-67
2023/12/15 07:44:31;;;;;;;92.45;22.33;;;6.20;99.90;;;;;;5092342;28;20035;-67
2023/12/15 07:46:57;;;;;;;102.25;25.42;;;6.20;99.90;;;;;;5071900;28;20467;-67
2023/12/15 07:49:24;;;;;;;83.07;22.77;;;6.20;99.90;;;;;;5088419;28;20059;-67
2023/12/15 07:51:50;;;;;;;95.70;24.42;;;6.20;99.90;;;;;;5075043;28;20042;-67
2023/12/15 07:54:16;;;;;;;110.10;25.02;;;6.20;99.90;;;;;;5097512;28;20046;-67
2023/12/15 07:56:42;;;;;;;92.03;22.77;;;6.20;99.90;;;;;;5074883;28;20408;-67
2023/12/15 07:59:08;;;;;;;99.10;23.23;;;6.20;99.90;;;;;;5090196;28;20028;-67
2023/12/15 08:01:34;;;;;;;105.00;25.67;;;6.20;99.90;;;;;;5094101;28;20086;-67
2023/12/15 08:04:00;;;;;;;87.85;22.73;;;6.30;99.90;;;;;;5100379;28;20592;-67
2023/12/15 08:06:26;;;;;;;110.53;24.20;;;6.30;99.90;;;;;;5095143;28;20063;-67
2023/12/15 08:08:52;;;;;;;102.00;26.00;;;6.30;99.90;;;;;;5102255;28;20039;-67
2023/12/15 08:11:18;;;;;;;83.60;24.75;;;6.30;99.90;;;;;;5112616;28;20089;-67
2023/12/15 08:13:45;;;;;;;95.22;22.55;;;6.40;99.90;;;;;;5103653;28;20075;-67
2023/12/15 08:16:11;;;;;;;95.57;23.95;;;6.40;99.90;;;;;;5095446;28;20073;-67
2023/12/15 08:18:37;;;;;;;102.10;25.83;;;6.40;99.90;;;;;;5103223;28;20242;-67
2023/12/15 08:21:03;;;;;;;97.57;27.30;;;6.40;99.90;;;;;;5112196;28;20035;-67
2023/12/15 08:23:29;;;;;;;96.65;25.40;;;6.40;99.90;;;;;;5095276;28;20044;-67
2023/12/15 08:25:55;;;;;;;96.80;22.85;;;6.40;99.90;;;;;;5110328;28;20400;-67
2023/12/15 08:28:21;;;;;;;86.65;24.40;;;6.40;99.90;;;;;;5104054;28;20146;-67
2023/12/15 08:30:48;;;;;;;97.53;24.05;;;6.50;99.90;;;;;;5089490;28;20122;-67
2023/12/15 08:33:14;;;;;;;77.88;22.50;;;6.40;99.90;;;;;;5096655;28;20044;-67
2023/12/15 08:35:39;;;;;;;89.68;25.30;;;6.50;99.90;;;;;;5089381;28;20390;-67
2023/12/15 08:38:05;;;;;;;80.32;23.23;;;6.50;99.90;;;;;;5088072;28;20489;-67
2023/12/15 08:40:31;;;;;;;165.30;53.83;;;6.50;99.90;;;;;;5091362;28;20055;-67
2023/12/15 08:42:57;;;;;;;75.07;20.75;;;6.50;99.90;;;;;;5074833;28;20046;-67
2023/12/15 08:45:23;;;;;;;70.30;18.63;;;6.50;99.90;;;;;;5111628;28;20603;-67
2023/12/15 08:47:48;;;;;;;89.68;25.33;;;6.60;99.90;;;;;;5110940;28;20331;-67
2023/12/15 08:50:15;;;;;;;82.55;22.35;;;6.60;99.90;;;;;;5111870;28;20042;-67
2023/12/15 08:52:41;;;;;;;67.18;20.50;;;6.60;99.90;;;;;;5112755;28;20050;-67
2023/12/15 08:55:07;;;;;;;100.57;22.05;;;6.60;99.90;;;;;;5092542;28;20040;-67
2023/12/15 08:57:35;;;;;;;76.45;22.13;;;6.60;99.90;;;;;;5111829;28;20121;-67
2023/12/15 09:00:03;;;;;;;78.47;19.60;;;6.60;99.90;;;;;;5110136;28;20038;-67
2023/12/15 09:02:29;;;;;;;62.58;18.17;;;6.60;99.90;;;;;;5111394;28;20069;-67
2023/12/15 09:04:54;;;;;;;72.28;21.63;;;6.60;99.90;;;;;;5109256;28;20039;-67
2023/12/15 09:07:20;;;;;;;58.35;20.10;;;6.70;99.90;;;;;;5084685;28;20039;-67
2023/12/15 09:09:46;;;;;;;74.93;20.73;;;6.60;99.90;;;;;;5102682;28;20067;-67
2023/12/15 09:12:11;;;;;;;63.58;20.38;;;6.70;99.90;;;;;;5087921;28;20070;-67
2023/12/15 09:14:38;;;;;;;52.25;18.08;;;6.70;99.90;;;;;;5083914;28;20067;-67
2023/12/15 09:17:05;;;;;;;62.90;19.42;;;6.80;99.90;;;;;;5070583;28;20438;-67
2023/12/15 09:19:32;;;;;;;68.70;18.40;;;6.70;99.90;;;;;;5077610;28;20044;-67
2023/12/15 09:21:58;;;;;;;59.75;19.35;;;6.80;99.90;;;;;;5107273;28;20044;-67
2023/12/15 09:24:23;;;;;;;70.03;20.25;;;6.80;99.90;;;;;;5104511;28;20404;-67
2023/12/15 09:26:49;;;;;;;98.85;38.97;;;6.90;99.90;;;;;;5110818;28;20122;-67
2023/12/15 09:29:15;;;;;;;54.10;17.85;;;6.90;99.90;;;;;;5072734;28;20075;-67
2023/12/15 09:31:42;;;;;;;49.15;18.13;;;6.90;99.90;;;;;;5094376;28;20036;-67
2023/12/15 09:34:07;;;;;;;57.78;18.70;;;6.90;99.90;;;;;;5105913;28;20078;-67
2023/12/15 09:36:34;;;;;;;48.58;17.90;;;6.90;99.90;;;;;;5110590;28;20075;-67
2023/12/15 09:39:00;;;;;;;56.67;18.48;;;6.90;99.90;;;;;;5089822;28;20044;-67
2023/12/15 09:41:27;;;;;;;54.28;18.52;;;6.90;99.90;;;;;;5092078;28;20130;-67
2023/12/15 09:43:53;;;;;;;42.70;16.15;;;6.90;99.90;;;;;;5091316;28;20050;-67
2023/12/15 09:46:21;;;;;;;42.95;16.23;;;6.90;99.90;;;;;;5107373;28;20040;-67
2023/12/15 09:48:47;;;;;;;67.15;32.72;;;6.90;99.90;;;;;;5109387;28;20073;-67
2023/12/15 09:51:17;;;;;;;51.10;15.80;;;7.00;99.90;;;;;;5105243;28;20047;-67
2023/12/15 09:53:48;;;;;;;46.03;16.58;;;7.00;99.90;;;;;;5109856;28;20036;-67
2023/12/15 09:56:14;;;;;;;50.10;15.88;;;7.00;99.90;;;;;;5088191;28;20071;-67
2023/12/15 09:58:41;;;;;;;39.78;15.32;;;7.10;99.90;;;;;;5093636;28;20358;-67
2023/12/15 10:01:07;;;;;;;54.80;17.55;;;7.10;99.90;;;;;;5088154;28;20575;-67
2023/12/15 10:03:32;;;;;;;42.75;16.90;;;7.10;99.90;;;;;;5110353;28;20118;-67
2023/12/15 10:05:58;;;;;;;43.00;15.35;;;7.20;99.90;;;;;;5104712;28;20130;-67
2023/12/15 10:08:24;;;;;;;41.03;13.77;;;7.30;99.90;;;;;;5109929;28;20453;-67
2023/12/15 10:10:50;;;;;;;42.05;16.02;;;7.30;99.90;;;;;;5086744;28;20043;-67
2023/12/15 10:13:17;;;;;;;60.97;28.27;;;7.30;99.90;;;;;;5110031;28;20126;-67
2023/12/15 10:15:43;;;;;;;39.45;14.10;;;7.40;99.90;;;;;;5103192;28;20054;-67
2023/12/15 10:18:09;;;;;;;38.00;13.05;;;7.40;99.90;;;;;;5110680;28;20418;-67
2023/12/15 10:20:35;;;;;;;31.65;14.15;;;7.40;99.90;;;;;;5052149;28;20111;-67
2023/12/15 10:23:06;;;;;;;33.13;14.40;;;7.40;99.90;;;;;;5110056;28;20054;-67
2023/12/15 10:25:35;;;;;;;52.25;24.67;;;7.50;99.90;;;;;;5100096;28;20040;-67
2023/12/15 10:28:04;;;;;;;57.97;23.98;;;7.50;99.90;;;;;;5081512;28;20039;-67
2023/12/15 10:30:30;;;;;;;55.63;23.20;;;7.60;99.90;;;;;;5086060;28;20066;-67
2023/12/15 10:32:59;;;;;;;51.95;21.80;;;7.60;99.90;;;;;;5109257;28;20496;-67
2023/12/15 10:35:29;;;;;;;36.85;13.13;;;7.70;99.90;;;;;;5087695;28;20112;-67
2023/12/15 10:37:55;;;;;;;34.13;11.23;;;7.70;99.90;;;;;;5090051;28;20044;-67
2023/12/15 10:40:21;;;;;;;30.75;10.70;;;7.70;99.90;;;;;;5105770;28;20444;-67
2023/12/15 10:42:50;;;;;;;43.45;11.85;;;7.70;99.90;;;;;;5088778;28;20044;-67
2023/12/15 10:45:18;;;;;;;30.27;10.20;;;7.70;99.90;;;;;;5106104;28;20119;-67
2023/12/15 10:47:45;;;;;;;31.02;10.85;;;7.70;99.90;;;;;;5086873;28;20047;-67
2023/12/15 10:50:10;;;;;;;46.03;18.20;;;7.80;99.90;;;;;;5107033;28;20052;-67
2023/12/15 10:52:37;;;;;;;37.92;16.77;;;7.80;99.90;;;;;;5085119;28;20343;-67
2023/12/15 10:55:06;;;;;;;41.80;16.67;;;7.80;99.90;;;;;;5109574;28;20114;-67
2023/12/15 10:57:32;;;;;;;27.77;9.18;;;7.90;99.90;;;;;;5100714;28;20043;-67
2023/12/15 11:00:00;;;;;;;34.95;9.05;;;7.90;99.90;;;;;;5109340;28;20504;-67
2023/12/15 11:02:31;;;;;;;25.83;9.88;;;7.90;99.90;;;;;;5100025;28;20043;-67
2023/12/15 11:05:01;;;;;;;26.58;8.25;;;7.90;99.90;;;;;;5109651;28;20035;-67
2023/12/15 11:07:30;;;;;;;29.13;8.25;;;8.00;99.90;;;;;;5086494;28;20039;-68
2023/12/15 11:09:59;;;;;;;40.60;12.85;;;8.00;99.90;;;;;;5109854;28;20492;-68
2023/12/15 11:12:31;;;;;;;17.55;6.47;;;8.00;99.90;;;;;;5082010;28;20051;-68
2023/12/15 11:15:07;;;;;;;29.05;6.40;;;8.00;99.90;;;;;;5109343;28;20051;-68
2023/12/15 11:17:37;;;;;;;27.88;7.13;;;8.10;99.90;;;;;;5101542;28;20107;-68
2023/12/15 11:20:23;;;;;;;33.90;12.48;;;8.10;99.90;;;;;;5113479;28;20047;-68
2023/12/15 11:22:54;;;;;;;34.33;12.18;;;8.20;99.90;;;;;;5112170;28;20093;-67
2023/12/15 11:25:21;;;;;;;32.38;11.93;;;8.20;99.90;;;;;;5114521;28;20111;-68
2023/12/15 11:28:02;;;;;;;33.70;11.68;;;8.20;99.90;;;;;;5065409;28;20039;-68
2023/12/15 11:30:41;;;;;;;35.40;11.75;;;8.20;99.90;;;;;;5114803;28;20097;-68
2023/12/15 11:33:29;;;;;;;40.00;12.18;;;8.30;99.90;;;;;;5113396;28;20561;-68
2023/12/15 11:36:06;;;;;;;28.42;6.80;;;8.30;99.90;;;;;;5113510;27;20056;-68
2023/12/15 11:38:33;;;;;;;30.85;6.53;;;8.30;99.90;;;;;;5113284;28;20038;-68
2023/12/15 11:41:02;;;;;;;36.42;11.02;;;8.30;99.90;;;;;;5113297;28;20046;-68
2023/12/15 11:43:31;;;;;;;26.10;8.02;;;8.30;99.90;;;;;;5096755;28;20051;-68
2023/12/15 11:45:57;;;;;;;28.83;10.05;;;8.30;99.90;;;;;;5111477;28;20589;-68
2023/12/15 11:48:24;;;;;;;34.92;10.50;;;8.40;99.90;;;;;;5095659;28;20126;-68
2023/12/15 11:50:49;;;;;;;32.13;11.45;;;8.40;99.90;;;;;;5095749;28;20043;-68
2023/12/15 11:53:16;;;;;;;33.88;8.13;;;8.40;99.90;;;;;;5093776;28;20042;-68
2023/12/15 11:55:46;;;;;;;31.52;10.60;;;8.40;99.90;;;;;;5129816;27;20429;-68
2023/12/15 11:58:15;;;;;;;31.38;10.57;;;8.40;99.90;;;;;;5078205;28;20093;-68
2023/12/15 12:00:42;;;;;;;30.85;9.93;;;8.40;99.90;;;;;;5076508;28;20132;-68
2023/12/15 12:03:10;;;;;;;31.52;8.85;;;8.40;99.90;;;;;;5060285;28;20550;-68
2023/12/15 12:05:38;;;;;;;43.00;10.82;;;8.40;99.90;;;;;;5079093;28;20055;-68
2023/12/15 12:08:04;;;;;;;40.17;11.63;;;8.40;99.90;;;;;;5063422;28;20371;-68
2023/12/15 12:10:38;;;;;;;34.38;9.68;;;8.40;99.90;;;;;;5046169;28;20040;-68
2023/12/15 12:13:07;;;;;;;32.55;10.82;;;8.40;99.90;;;;;;5078323;28;20059;-68
2023/12/15 12:15:54;;;;;;;29.20;9.88;;;8.50;99.90;;;;;;5078147;28;20028;-68
2023/12/15 12:18:21;;;;;;;29.45;9.55;;;8.50;99.90;;;;;;5080141;28;20056;-68
2023/12/15 12:20:47;;;;;;;36.83;11.15;;;8.50;99.90;;;;;;5062144;28;20119;-68
2023/12/15 12:23:13;;;;;;;38.65;10.63;;;8.50;99.90;;;;;;5061547;28;20059;-68
2023/12/15 12:25:47;;;;;;;31.10;9.57;;;8.60;99.90;;;;;;5045496;28;20044;-68
2023/12/15 12:28:16;;;;;;;34.70;9.88;;;8.60;99.90;;;;;;5078713;28;20054;-68
2023/12/15 12:30:43;;;;;;;30.80;9.68;;;8.70;99.90;;;;;;5061773;28;20101;-68
2023/12/15 12:33:10;;;;;;;36.15;10.95;;;8.70;99.90;;;;;;5058754;28;20040;-68
2023/12/15 12:35:36;;;;;;;32.78;10.25;;;8.60;99.90;;;;;;5045669;28;20040;-67